Time;durP1;ratioP1;P1;durP2;ratioP2;P2;SDS_P1;SDS_P2;PMS_P1;PMS_P2;Temp;Humidity;BMP_temperature;BMP_pressure;BME280_temperature;BME280_humidity;BME280_pressure;Samples;Min_cycle;Max_cycle;Signal;HPM_P1;HPM_P2
2023/05/09 00:00:34;;;;;;;16.47;13.10;;;;;;;12.40;100.00;148199.94;5111252;28;20201;-47
2023/05/09 00:03:04;;;;;;;15.70;13.90;;;;;;;12.39;100.00;148196.16;5111300;28;20230;-46
2023/05/09 00:05:33;;;;;;;16.33;13.97;;;;;;;12.36;100.00;148189.84;5111402;28;20318;-46
2023/05/09 00:08:00;;;;;;;18.13;14.33;;;;;;;12.34;100.00;148184.81;5111677;28;20578;-46
2023/05/09 00:10:27;;;;;;;17.00;14.10;;;;;;;12.32;100.00;148181.03;5108777;28;20764;-46
2023/05/09 00:12:54;;;;;;;18.73;13.97;;;;;;;12.29;100.00;148173.50;5111381;28;20712;-47
2023/05/09 00:15:22;;;;;;;18.73;14.73;;;;;;;12.33;100.00;148183.53;5111014;28;20195;-46
2023/05/09 00:17:49;;;;;;;15.30;13.70;;;;;;;12.35;100.00;148188.59;5111043;28;20287;-46
2023/05/09 00:20:16;;;;;;;16.53;14.87;;;;;;;12.38;100.00;148193.63;5110980;28;20587;-46
2023/05/09 00:22:44;;;;;;;16.23;14.50;;;;;;;12.32;100.00;148179.75;5110939;28;20197;-46
2023/05/09 00:25:12;;;;;;;18.63;14.90;;;;;;;12.33;100.00;148183.53;5110864;28;20211;-46
2023/05/09 00:27:38;;;;;;;18.43;15.27;;;;;;;12.39;100.00;148196.16;5110923;28;20196;-46
2023/05/09 00:30:07;;;;;;;19.40;15.17;;;;;;;12.35;100.00;148187.31;5110933;28;20214;-46
2023/05/09 00:32:34;;;;;;;21.63;14.70;;;;;;;12.38;100.00;148193.63;5110743;28;20614;-49
2023/05/09 00:35:01;;;;;;;23.90;16.93;;;;;;;12.36;100.00;148191.09;5110707;28;20248;-46
2023/05/09 00:37:29;;;;;;;19.60;17.13;;;;;;;12.26;100.00;148165.94;5108612;28;20696;-46
2023/05/09 00:39:58;;;;;;;19.77;15.87;;;;;;;12.32;100.00;148181.03;5110915;28;20702;-49
2023/05/09 00:42:24;;;;;;;21.23;16.43;;;;;;;12.35;100.00;148188.59;5110919;28;20608;-49
2023/05/09 00:44:51;;;;;;;17.50;15.60;;;;;;;12.25;100.00;148163.41;5110307;28;20214;-48
2023/05/09 00:47:19;;;;;;;20.83;14.23;;;;;;;12.24;100.00;148160.88;5110914;28;20201;-47
2023/05/09 00:49:46;;;;;;;17.43;15.13;;;;;;;12.19;100.00;148148.28;5110464;28;20194;-47
2023/05/09 00:52:13;;;;;;;20.10;14.83;;;;;;;12.18;100.00;148145.81;5110565;28;20285;-50
2023/05/09 00:54:39;;;;;;;25.90;15.90;;;;;;;12.20;100.00;148150.78;5110422;28;20195;-46
2023/05/09 00:57:08;;;;;;;17.17;14.83;;;;;;;12.21;100.00;148152.06;5110419;28;20195;-46
2023/05/09 00:59:35;;;;;;;17.77;14.10;;;;;;;12.18;100.00;148145.81;5110331;28;20193;-46
2023/05/09 01:02:02;;;;;;;19.67;15.67;;;;;;;12.15;100.00;148136.97;5109947;28;20209;-46
2023/05/09 01:04:29;;;;;;;18.20;14.97;;;;;;;12.14;100.00;148135.72;5110281;28;20301;-46
2023/05/09 01:07:04;;;;;;;16.93;14.87;;;;;;;12.11;100.00;148126.88;5110336;28;20658;-47
2023/05/09 01:09:38;;;;;;;17.20;15.37;;;;;;;12.13;100.00;148131.94;5108247;28;20194;-49
2023/05/09 01:12:16;;;;;;;19.30;16.23;;;;;;;12.13;100.00;148133.19;5109566;28;20637;-46
2023/05/09 01:14:52;;;;;;;22.03;15.63;;;;;;;12.17;100.00;148143.28;5110098;28;20220;-46
2023/05/09 01:17:29;;;;;;;17.33;15.47;;;;;;;12.07;100.00;148118.09;5110166;28;20582;-46
2023/05/09 01:20:09;;;;;;;21.47;15.33;;;;;;;12.04;100.00;148110.53;5108436;28;20681;-48
2023/05/09 01:22:39;;;;;;;18.50;15.23;;;;;;;12.08;100.00;148119.31;5108258;28;20228;-47
2023/05/09 01:25:51;;;;;;;18.80;14.50;;;;;;;12.00;100.00;148101.72;5109580;28;20225;-46
2023/05/09 01:28:41;;;;;;;18.67;16.67;;;;;;;12.14;100.00;148135.72;5108857;28;20202;-46
2023/05/09 01:31:10;;;;;;;20.30;16.83;;;;;;;12.07;100.00;148116.84;5107069;28;20226;-46
2023/05/09 01:33:40;;;;;;;20.13;15.70;;;;;;;12.04;100.00;148110.53;5109804;28;20213;-46
2023/05/09 01:36:14;;;;;;;18.43;14.53;;;;;;;12.02;100.00;148105.50;5110169;28;20686;-46
2023/05/09 01:38:42;;;;;;;17.93;15.43;;;;;;;12.05;100.00;148113.06;5109804;28;20190;-46
2023/05/09 01:41:10;;;;;;;18.53;16.43;;;;;;;11.98;100.00;148096.66;5107183;28;20194;-46
2023/05/09 01:43:38;;;;;;;19.40;15.57;;;;;;;12.02;100.00;148104.25;5109375;28;20199;-45
2023/05/09 01:46:06;;;;;;;19.23;16.37;;;;;;;11.99;100.00;148097.94;5109307;28;20214;-45
2023/05/09 01:48:37;;;;;;;20.10;16.13;;;;;;;12.10;100.00;148125.63;5109899;28;20186;-46
2023/05/09 01:51:05;;;;;;;21.70;15.77;;;;;;;12.06;100.00;148115.59;5109566;28;20208;-46
2023/05/09 01:53:34;;;;;;;18.40;16.50;;;;;;;12.13;100.00;148133.19;5109735;28;20198;-46
2023/05/09 01:56:03;;;;;;;19.53;16.23;;;;;;;12.13;100.00;148133.19;5109401;28;20190;-46
2023/05/09 01:58:33;;;;;;;24.13;16.30;;;;;;;12.15;100.00;148138.22;5107070;28;20208;-47
2023/05/09 02:01:01;;;;;;;21.30;15.67;;;;;;;12.11;100.00;148126.88;5109936;28;20670;-50
2023/05/09 02:03:28;;;;;;;17.77;14.90;;;;;;;12.08;100.00;148119.31;5106607;28;20225;-49
2023/05/09 02:05:57;;;;;;;18.70;15.67;;;;;;;12.07;100.00;148116.84;5109284;28;20246;-49
2023/05/09 02:08:25;;;;;;;19.07;14.77;;;;;;;12.10;100.00;148124.38;5109042;28;20194;-49
2023/05/09 02:10:52;;;;;;;18.00;14.43;;;;;;;12.07;100.00;148116.84;5109230;28;20198;-48
2023/05/09 02:13:19;;;;;;;19.13;14.20;;;;;;;12.03;100.00;148108.00;5109385;28;20297;-48
2023/05/09 02:15:47;;;;;;;16.47;14.10;;;;;;;12.01;100.00;148102.97;5109230;28;20195;-49
2023/05/09 02:18:15;;;;;;;18.67;14.17;;;;;;;11.98;100.00;148096.66;5109412;28;20198;-49
2023/05/09 02:20:42;;;;;;;18.47;15.00;;;;;;;11.98;100.00;148095.41;5109370;28;20590;-49
2023/05/09 02:23:11;;;;;;;16.97;15.17;;;;;;;11.96;100.00;148091.63;5109004;28;20235;-46
2023/05/09 02:25:39;;;;;;;20.43;15.47;;;;;;;11.99;100.00;148097.94;5112248;28;20214;-46
2023/05/09 02:28:07;;;;;;;19.77;15.03;;;;;;;11.97;100.00;148092.88;5113189;28;20201;-45
2023/05/09 02:30:39;;;;;;;20.53;15.80;;;;;;;11.93;100.00;148082.84;5113530;28;20201;-46
2023/05/09 02:33:08;;;;;;;18.63;14.40;;;;;;;12.00;100.00;148100.44;5113297;28;20205;-46
2023/05/09 02:35:36;;;;;;;17.93;14.93;;;;;;;12.06;100.00;148114.31;5113063;28;20646;-46
2023/05/09 02:38:03;;;;;;;21.43;15.33;;;;;;;12.07;100.00;148116.84;5113154;28;20203;-47
2023/05/09 02:40:33;;;;;;;19.30;14.90;;;;;;;12.06;100.00;148114.31;5113345;28;20205;-47
2023/05/09 02:43:00;;;;;;;21.03;16.10;;;;;;;12.08;100.00;148120.59;5113091;28;20194;-46
2023/05/09 02:45:27;;;;;;;17.53;15.67;;;;;;;12.06;100.00;148115.59;5112778;28;20210;-47
2023/05/09 02:47:53;;;;;;;19.53;15.63;;;;;;;12.04;100.00;148110.53;5112917;28;20289;-46
2023/05/09 02:50:20;;;;;;;20.63;14.87;;;;;;;12.04;100.00;148109.28;5112732;28;20222;-46
2023/05/09 02:52:47;;;;;;;20.83;14.93;;;;;;;12.05;100.00;148111.81;5113082;28;20217;-47
2023/05/09 02:55:14;;;;;;;20.17;15.27;;;;;;;12.05;100.00;148113.06;5112940;28;20587;-46
2023/05/09 02:57:42;;;;;;;18.07;15.53;;;;;;;12.06;100.00;148115.59;5112750;28;20199;-49
2023/05/09 03:00:10;;;;;;;25.37;16.20;;;;;;;12.11;100.00;148126.88;5110607;28;20199;-49
2023/05/09 03:02:38;;;;;;;20.67;14.37;;;;;;;12.09;100.00;148121.84;5112176;28;20218;-49
2023/05/09 03:05:05;;;;;;;19.90;14.30;;;;;;;12.06;100.00;148115.59;5112271;28;20215;-49
2023/05/09 03:07:32;;;;;;;18.27;15.60;;;;;;;12.06;100.00;148115.59;5112637;28;20213;-48
2023/05/09 03:09:59;;;;;;;19.50;15.13;;;;;;;12.04;100.00;148109.28;5112588;28;20198;-48
2023/05/09 03:12:26;;;;;;;19.87;15.27;;;;;;;12.04;100.00;148110.53;5112016;28;20195;-49
2023/05/09 03:14:55;;;;;;;23.70;15.87;;;;;;;12.07;100.00;148118.09;5111998;28;20194;-48
2023/05/09 03:17:22;;;;;;;18.43;16.27;;;;;;;12.09;100.00;148123.09;5112209;28;20289;-49
2023/05/09 03:19:49;;;;;;;21.20;16.67;;;;;;;12.08;100.00;148119.31;5110061;28;20194;-47
2023/05/09 03:22:16;;;;;;;20.93;16.30;;;;;;;12.08;100.00;148119.31;5112227;28;20195;-47
2023/05/09 03:24:43;;;;;;;17.97;15.80;;;;;;;12.11;100.00;148126.88;5112553;28;20223;-47
2023/05/09 03:27:09;;;;;;;19.37;16.70;;;;;;;12.17;100.00;148143.28;5113156;28;20218;-46
2023/05/09 03:29:36;;;;;;;18.60;16.13;;;;;;;12.19;100.00;148147.06;5113288;28;20194;-46
2023/05/09 03:32:05;;;;;;;18.13;16.10;;;;;;;12.08;100.00;148120.59;5113225;28;20674;-48
2023/05/09 03:34:32;;;;;;;20.50;16.27;;;;;;;12.16;100.00;148140.75;5113497;28;20597;-50
2023/05/09 03:36:59;;;;;;;21.93;17.53;;;;;;;12.20;100.00;148150.78;5113114;28;20195;-48
2023/05/09 03:39:26;;;;;;;17.83;15.97;;;;;;;12.21;100.00;148153.31;5113181;28;20191;-49
2023/05/09 03:41:53;;;;;;;20.33;16.93;;;;;;;12.18;100.00;148145.81;5113062;28;20197;-48
2023/05/09 03:44:20;;;;;;;18.67;15.47;;;;;;;12.18;100.00;148144.53;5113058;28;20197;-48
2023/05/09 03:46:47;;;;;;;22.63;16.47;;;;;;;12.21;100.00;148152.06;5113078;28;20222;-49
2023/05/09 03:49:15;;;;;;;22.10;17.30;;;;;;;12.22;100.00;148154.59;5112375;28;20194;-48
2023/05/09 03:51:42;;;;;;;23.43;19.23;;;;;;;12.24;100.00;148160.88;5112696;28;20195;-49
2023/05/09 03:54:09;;;;;;;22.80;17.27;;;;;;;12.32;100.00;148179.75;5112341;28;20194;-47
2023/05/09 03:56:36;;;;;;;16.80;15.03;;;;;;;12.29;100.00;148172.25;5112551;28;20187;-49
2023/05/09 03:59:02;;;;;;;21.93;15.33;;;;;;;12.32;100.00;148181.03;5110929;28;20199;-47
2023/05/09 04:01:30;;;;;;;18.77;15.70;;;;;;;12.29;100.00;148172.25;5111518;28;20201;-47
2023/05/09 04:03:57;;;;;;;20.67;16.40;;;;;;;12.25;100.00;148163.41;5111927;28;20218;-45
2023/05/09 04:06:25;;;;;;;21.87;16.53;;;;;;;12.23;100.00;148158.38;5112059;28;20215;-47
2023/05/09 04:08:52;;;;;;;22.40;16.87;;;;;;;12.27;100.00;148168.44;5092374;28;20203;-45
2023/05/09 04:11:20;;;;;;;19.97;16.13;;;;;;;12.33;100.00;148182.28;5099992;28;20217;-46
2023/05/09 04:13:47;;;;;;;19.97;16.90;;;;;;;12.36;100.00;148189.84;5110536;28;20283;-46
2023/05/09 04:16:14;;;;;;;22.93;17.83;;;;;;;12.42;100.00;148203.69;5109918;28;20232;-47
2023/05/09 04:18:41;;;;;;;19.47;16.13;;;;;;;12.35;100.00;148188.59;5110219;28;20579;-46
2023/05/09 04:21:08;;;;;;;20.10;15.77;;;;;;;12.31;100.00;148177.22;5108511;28;20286;-46
2023/05/09 04:23:37;;;;;;;23.73;16.57;;;;;;;12.28;100.00;148169.72;5111158;28;20270;-49
2023/05/09 04:26:04;;;;;;;19.10;15.90;;;;;;;12.33;100.00;148182.28;5110930;28;20211;-45
2023/05/09 04:28:31;;;;;;;21.90;16.77;;;;;;;12.32;100.00;148179.75;5111672;28;20285;-47
2023/05/09 04:30:58;;;;;;;19.63;15.80;;;;;;;12.28;100.00;148169.72;5111377;28;20198;-47
2023/05/09 04:33:25;;;;;;;22.27;16.63;;;;;;;12.33;100.00;148183.53;5111468;28;20199;-46
2023/05/09 04:35:52;;;;;;;22.63;16.57;;;;;;;12.38;100.00;148194.91;5111398;28;20201;-46
2023/05/09 04:38:18;;;;;;;23.43;17.77;;;;;;;12.43;100.00;148207.47;5111295;28;20265;-47
2023/05/09 04:40:47;;;;;;;22.77;17.47;;;;;;;12.46;100.00;148213.75;5111104;28;20581;-45
2023/05/09 04:43:14;;;;;;;22.40;16.93;;;;;;;12.45;100.00;148211.25;5111159;28;20205;-47
2023/05/09 04:45:41;;;;;;;25.00;16.87;;;;;;;12.45;100.00;148212.50;5110877;28;20226;-47
2023/05/09 04:48:08;;;;;;;20.40;15.13;;;;;;;12.35;100.00;148188.59;5110184;28;20206;-46
2023/05/09 04:50:35;;;;;;;20.43;15.63;;;;;;;12.38;100.00;148194.91;5111142;28;20199;-46
2023/05/09 04:53:02;;;;;;;17.10;15.33;;;;;;;12.34;100.00;148184.81;5104663;28;20710;-47
2023/05/09 04:55:29;;;;;;;14.77;13.27;;;;;;;12.31;100.00;148178.50;5104919;28;20657;-49
2023/05/09 04:57:57;;;;;;;17.20;14.23;;;;;;;12.15;100.00;148138.22;5111601;28;20666;-49
2023/05/09 05:00:24;;;;;;;17.10;13.77;;;;;;;12.30;100.00;148175.97;5110960;28;20202;-48
2023/05/09 05:02:51;;;;;;;16.47;14.20;;;;;;;12.25;100.00;148162.16;5110651;28;20312;-48
2023/05/09 05:05:18;;;;;;;14.93;13.33;;;;;;;12.22;100.00;148154.59;5110829;28;20191;-49
2023/05/09 05:07:45;;;;;;;15.23;13.63;;;;;;;12.32;100.00;148181.03;5110693;28;20186;-46
2023/05/09 05:10:12;;;;;;;15.77;12.20;;;;;;;12.32;100.00;148179.75;5110753;28;20199;-52
2023/05/09 05:12:39;;;;;;;15.33;12.40;;;;;;;12.16;100.00;148140.75;5111071;28;20198;-46
2023/05/09 05:15:08;;;;;;;13.70;12.23;;;;;;;12.14;100.00;148135.72;5111378;28;20690;-47
2023/05/09 05:17:35;;;;;;;16.63;12.43;;;;;;;12.18;100.00;148144.53;5107316;28;20273;-47
2023/05/09 05:20:05;;;;;;;15.93;13.43;;;;;;;12.19;100.00;148148.28;5111430;28;20288;-48
2023/05/09 05:22:32;;;;;;;14.30;12.90;;;;;;;12.18;100.00;148145.81;5111458;28;20658;-47
2023/05/09 05:24:59;;;;;;;14.37;12.97;;;;;;;12.10;100.00;148124.38;5111047;28;20293;-46
2023/05/09 05:27:25;;;;;;;21.60;13.70;;;;;;;12.20;100.00;148150.78;5111101;28;20605;-50
2023/05/09 05:29:52;;;;;;;18.17;14.40;;;;;;;12.26;100.00;148165.94;5110921;28;20585;-49
2023/05/09 05:32:21;;;;;;;15.30;13.67;;;;;;;12.23;100.00;148157.09;5111004;28;20704;-49
2023/05/09 05:34:48;;;;;;;14.30;12.87;;;;;;;12.25;100.00;148163.41;5110725;28;20217;-49
2023/05/09 05:37:15;;;;;;;18.13;14.73;;;;;;;12.28;100.00;148169.72;5110874;28;20194;-49
2023/05/09 05:39:41;;;;;;;19.27;14.67;;;;;;;12.26;100.00;148165.94;5111058;28;20726;-50
2023/05/09 05:42:08;;;;;;;18.23;13.87;;;;;;;12.25;100.00;148163.41;5110814;28;20198;-46
2023/05/09 05:44:35;;;;;;;18.73;14.17;;;;;;;12.25;100.00;148163.41;5110972;28;20230;-50
2023/05/09 05:47:02;;;;;;;18.80;15.33;;;;;;;12.28;100.00;148169.72;5110807;28;20218;-47
2023/05/09 05:49:30;;;;;;;19.03;13.87;;;;;;;12.20;100.00;148150.78;5110622;28;20194;-49
2023/05/09 05:51:57;;;;;;;19.03;15.27;;;;;;;12.18;100.00;148145.81;5111014;28;20230;-50
2023/05/09 05:54:24;;;;;;;17.53;13.30;;;;;;;12.17;100.00;148142.03;5110747;28;21051;-47
2023/05/09 05:56:51;;;;;;;18.97;13.80;;;;;;;12.09;100.00;148123.09;5110708;28;20207;-47
2023/05/09 05:59:18;;;;;;;20.63;13.57;;;;;;;12.07;100.00;148116.84;5109074;28;20203;-46
2023/05/09 06:01:45;;;;;;;22.03;14.03;;;;;;;12.12;100.00;148129.41;5090023;28;20215;-47
2023/05/09 06:04:12;;;;;;;19.50;13.83;;;;;;;12.14;100.00;148134.44;5089317;28;20238;-49
2023/05/09 06:06:40;;;;;;;16.13;14.20;;;;;;;12.15;100.00;148138.22;5105322;28;20702;-48
2023/05/09 06:09:07;;;;;;;14.53;13.10;;;;;;;12.17;100.00;148143.28;5109395;28;20207;-45
2023/05/09 06:11:34;;;;;;;16.53;12.90;;;;;;;12.02;100.00;148105.50;5106484;28;20238;-47
2023/05/09 06:14:01;;;;;;;17.60;13.70;;;;;;;12.07;100.00;148116.84;5110227;28;20200;-46
2023/05/09 06:16:28;;;;;;;17.40;13.43;;;;;;;12.10;100.00;148124.38;5109767;28;20213;-46
2023/05/09 06:18:55;;;;;;;18.80;14.40;;;;;;;12.16;100.00;148140.75;5110161;28;20680;-50
2023/05/09 06:21:21;;;;;;;19.77;15.43;;;;;;;12.19;100.00;148148.28;5110394;28;20687;-49
2023/05/09 06:23:50;;;;;;;19.93;15.57;;;;;;;12.21;100.00;148153.31;5110322;28;20195;-46
2023/05/09 06:26:17;;;;;;;17.90;14.60;;;;;;;12.25;100.00;148162.16;5109159;28;20222;-49
2023/05/09 06:28:44;;;;;;;19.10;15.10;;;;;;;12.27;100.00;148168.44;5110353;28;20613;-48
2023/05/09 06:31:10;;;;;;;18.47;14.37;;;;;;;12.31;100.00;148178.50;5110406;28;20202;-49
2023/05/09 06:33:37;;;;;;;29.80;18.20;;;;;;;12.29;100.00;148173.50;5110431;28;20203;-47
2023/05/09 06:36:05;;;;;;;25.03;19.37;;;;;;;12.33;100.00;148182.28;5110637;28;20585;-48
2023/05/09 06:38:33;;;;;;;23.63;16.00;;;;;;;12.31;100.00;148177.22;5110431;28;20581;-49
2023/05/09 06:41:02;;;;;;;23.03;16.37;;;;;;;12.36;100.00;148191.09;5110313;28;20203;-50
2023/05/09 06:43:29;;;;;;;24.70;17.13;;;;;;;12.43;100.00;148206.19;5110419;28;20220;-47
2023/05/09 06:45:55;;;;;;;30.97;18.23;;;;;;;12.48;100.00;148220.06;5092056;28;20219;-47
2023/05/09 06:48:23;;;;;;;29.77;18.60;;;;;;;12.54;100.00;148235.16;5089749;28;20233;-49
2023/05/09 06:50:50;;;;;;;21.83;17.70;;;;;;;12.50;100.00;148223.84;5096931;28;20218;-46
2023/05/09 06:53:17;;;;;;;23.57;17.17;;;;;;;12.47;100.00;148217.53;5109954;28;20662;-48
2023/05/09 06:55:44;;;;;;;24.27;16.20;;;;;;;12.51;100.00;148226.38;5108978;28;20195;-47
2023/05/09 06:58:12;;;;;;;23.30;16.50;;;;;;;12.55;100.00;148236.41;5110209;28;20195;-51
2023/05/09 07:00:39;;;;;;;24.67;15.77;;;;;;;12.58;100.00;148244.00;5109730;28;20201;-50
2023/05/09 07:03:07;;;;;;;24.60;17.23;;;;;;;12.56;100.00;148240.22;5109707;28;20240;-48
2023/05/09 07:05:34;;;;;;;23.80;16.33;;;;;;;12.55;100.00;148236.41;5110164;28;20194;-47
2023/05/09 07:08:01;;;;;;;23.43;17.83;;;;;;;12.53;100.00;148231.38;5110178;28;20223;-49
2023/05/09 07:10:28;;;;;;;26.43;17.53;;;;;;;12.52;100.00;148228.91;5111268;28;20195;-48
2023/05/09 07:12:54;;;;;;;27.03;18.33;;;;;;;12.60;100.00;148249.03;5113655;28;20591;-48
2023/05/09 07:15:23;;;;;;;29.13;18.40;;;;;;;12.61;100.00;148252.81;5113999;28;20688;-49
2023/05/09 07:17:51;;;;;;;27.57;18.90;;;;;;;12.66;100.00;148265.38;5113693;28;20198;-49
2023/05/09 07:20:18;;;;;;;27.53;19.80;;;;;;;12.68;100.00;148270.44;5113640;28;20195;-48
2023/05/09 07:22:45;;;;;;;27.30;19.03;;;;;;;12.72;100.00;148280.53;5113788;28;20195;-49
2023/05/09 07:25:12;;;;;;;32.87;21.37;;;;;;;12.72;100.00;148280.53;5113054;28;20591;-50
2023/05/09 07:27:39;;;;;;;30.43;20.67;;;;;;;12.75;100.00;148285.56;5109563;28;20228;-49
2023/05/09 07:30:08;;;;;;;28.77;20.57;;;;;;;12.81;100.00;148301.94;5112711;28;20583;-49
2023/05/09 07:32:36;;;;;;;30.20;20.83;;;;;;;12.78;100.00;148294.34;5112005;28;20591;-48
2023/05/09 07:35:03;;;;;;;28.57;20.53;;;;;;;12.77;100.00;148290.56;5112656;28;20194;-47
2023/05/09 07:37:30;;;;;;;24.67;17.63;;;;;;;12.86;100.00;148314.53;5112898;28;20612;-48
2023/05/09 07:39:57;;;;;;;31.30;21.60;;;;;;;12.83;100.00;148306.97;5112322;28;20195;-48
2023/05/09 07:42:24;;;;;;;31.83;21.00;;;;;;;12.84;100.00;148309.50;5113361;28;20565;-46
2023/05/09 07:44:51;;;;;;;28.00;19.20;;;;;;;12.79;100.00;148296.88;5113158;28;20290;-47
2023/05/09 07:47:17;;;;;;;38.80;20.40;;;;;;;12.79;100.00;148295.63;5113309;28;20723;-48
2023/05/09 07:49:46;;;;;;;34.63;20.83;;;;;;;12.76;100.00;148288.06;5113337;28;20581;-50
2023/05/09 07:52:13;;;;;;;29.13;21.13;;;;;;;12.80;100.00;148298.16;5113251;28;20201;-47
2023/05/09 07:54:40;;;;;;;34.30;21.10;;;;;;;12.79;100.00;148296.88;5113003;28;20209;-50
2023/05/09 07:57:07;;;;;;;35.37;22.57;;;;;;;12.77;100.00;148291.84;5112896;28;20282;-48
2023/05/09 07:59:34;;;;;;;31.57;23.83;;;;;;;12.79;100.00;148295.63;5112835;28;20662;-46
2023/05/09 08:02:01;;;;;;;33.10;21.77;;;;;;;12.85;100.00;148310.75;5112771;28;20205;-47
2023/05/09 08:04:28;;;;;;;29.27;22.73;;;;;;;12.93;100.00;148330.91;5112937;28;20194;-50
2023/05/09 08:06:56;;;;;;;34.37;22.97;;;;;;;12.99;100.00;148346.00;5112537;28;20322;-50
2023/05/09 08:09:23;;;;;;;34.03;23.63;;;;;;;12.98;100.00;148344.72;5112738;28;20293;-47
2023/05/09 08:11:50;;;;;;;34.53;23.63;;;;;;;12.97;100.00;148341.00;5112684;28;20209;-50
2023/05/09 08:14:17;;;;;;;31.70;22.37;;;;;;;12.85;100.00;148310.75;5112749;28;20199;-49
2023/05/09 08:16:44;;;;;;;30.17;21.80;;;;;;;12.88;100.00;148318.28;5112506;28;20214;-49
2023/05/09 08:19:11;;;;;;;31.40;23.30;;;;;;;12.94;100.00;148333.44;5112514;28;20195;-47
2023/05/09 08:21:38;;;;;;;35.33;23.40;;;;;;;12.96;100.00;148339.75;5112326;28;20195;-51
2023/05/09 08:24:08;;;;;;;32.47;20.87;;;;;;;12.93;100.00;148332.16;5112663;28;20271;-52
2023/05/09 08:26:37;;;;;;;29.70;19.77;;;;;;;12.94;100.00;148333.44;5112312;28;20195;-53
2023/05/09 08:29:04;;;;;;;37.47;21.73;;;;;;;12.91;100.00;148327.13;5112557;28;20301;-49
2023/05/09 08:31:31;;;;;;;30.73;20.10;;;;;;;12.82;100.00;148304.44;5112800;28;20202;-51
2023/05/09 08:33:57;;;;;;;33.07;22.40;;;;;;;12.81;100.00;148300.66;5112179;28;20199;-49
2023/05/09 08:36:24;;;;;;;31.33;22.23;;;;;;;12.91;100.00;148327.13;5111843;28;20209;-50
2023/05/09 08:38:52;;;;;;;32.53;23.00;;;;;;;12.97;100.00;148342.25;5112193;28;20293;-52
2023/05/09 08:41:26;;;;;;;33.10;22.47;;;;;;;13.03;100.00;148357.34;5108571;28;20222;-51
2023/05/09 08:43:53;;;;;;;27.87;19.60;;;;;;;13.08;100.00;148369.97;5110661;28;20233;-50
2023/05/09 08:46:28;;;;;;;34.13;20.30;;;;;;;13.05;100.00;148361.16;5111370;28;20730;-52
2023/05/09 08:48:55;;;;;;;32.17;20.47;;;;;;;13.03;100.00;148357.34;5110914;28;20273;-51
2023/05/09 08:51:23;;;;;;;34.60;20.83;;;;;;;13.08;100.00;148369.97;5111907;28;20267;-47
2023/05/09 08:53:51;;;;;;;28.77;18.10;;;;;;;13.08;100.00;148369.97;5111923;28;20202;-49
2023/05/09 08:56:18;;;;;;;30.50;19.13;;;;;;;12.96;100.00;148339.75;5107579;28;20674;-51
2023/05/09 08:58:47;;;;;;;30.47;18.70;;;;;;;12.97;100.00;148342.25;5091092;28;20302;-48
2023/05/09 09:01:14;;;;;;;33.67;20.33;;;;;;;12.88;100.00;148319.53;5090868;28;20219;-51
2023/05/09 09:03:46;;;;;;;30.73;19.23;;;;;;;12.90;100.00;148323.34;5090706;28;20235;-49
2023/05/09 09:06:14;;;;;;;26.83;19.57;;;;;;;12.89;100.00;148322.06;5091147;28;20706;-48
2023/05/09 09:08:42;;;;;;;29.10;21.17;;;;;;;12.89;100.00;148322.06;5110103;28;20218;-52
2023/05/09 09:11:13;;;;;;;36.13;23.70;;;;;;;13.02;100.00;148353.56;5110712;28;20530;-51
2023/05/09 09:13:41;;;;;;;31.87;20.80;;;;;;;13.04;100.00;148358.63;5111377;28;20201;-47
2023/05/09 09:16:11;;;;;;;29.80;19.70;;;;;;;13.05;100.00;148362.41;5111437;28;20209;-48
2023/05/09 09:18:39;;;;;;;26.37;20.00;;;;;;;13.01;100.00;148351.03;5105880;28;20223;-48
2023/05/09 09:21:09;;;;;;;25.67;20.33;;;;;;;13.06;100.00;148364.94;5090840;28;20219;-48
2023/05/09 09:23:39;;;;;;;26.50;19.37;;;;;;;13.10;100.00;148374.97;5097379;28;20222;-48
2023/05/09 09:26:06;;;;;;;24.93;18.03;;;;;;;13.09;100.00;148371.25;5110573;28;20606;-49
2023/05/09 09:28:33;;;;;;;23.70;17.73;;;;;;;13.07;100.00;148367.44;5110752;28;20222;-47
2023/05/09 09:31:00;;;;;;;21.50;17.30;;;;;;;13.17;100.00;148390.16;5110645;28;20717;-50
2023/05/09 09:33:29;;;;;;;23.37;17.57;;;;;;;13.28;100.00;148419.16;5110570;28;20197;-48
2023/05/09 09:35:58;;;;;;;22.80;17.67;;;;;;;13.40;100.00;148448.13;5111240;28;20251;-52
2023/05/09 09:38:25;;;;;;;26.37;17.70;;;;;;;13.50;100.00;148473.31;5109729;28;20637;-50
2023/05/09 09:40:56;;;;;;;24.50;17.60;;;;;;;13.54;100.00;148483.44;5099417;28;20203;-48
2023/05/09 09:43:30;;;;;;;24.37;17.43;;;;;;;13.62;100.00;148503.59;5090838;28;20195;-47
2023/05/09 09:46:00;;;;;;;27.07;16.13;;;;;;;13.62;100.00;148503.59;5102217;28;20241;-49
2023/05/09 09:48:32;;;;;;;22.33;16.17;;;;;;;13.67;100.00;148514.91;5109076;28;20697;-47
2023/05/09 09:51:04;;;;;;;23.40;17.13;;;;;;;13.80;100.00;148547.69;5109093;28;20681;-50
2023/05/09 09:53:35;;;;;;;23.23;18.50;;;;;;;13.85;100.00;148560.31;5106338;28;20202;-50
2023/05/09 09:56:02;;;;;;;26.20;18.90;;;;;;;13.88;100.00;148567.88;5109464;28;20190;-48
2023/05/09 09:58:29;;;;;;;28.57;20.13;;;;;;;13.89;100.00;148569.09;5108903;28;20183;-47
2023/05/09 10:01:06;;;;;;;27.47;20.20;;;;;;;14.00;100.00;148596.84;5109303;28;20558;-50
2023/05/09 10:03:38;;;;;;;28.87;20.20;;;;;;;14.08;100.00;148617.03;5109904;28;20305;-50
2023/05/09 10:06:09;;;;;;;28.70;17.27;;;;;;;14.05;100.00;148609.47;5110249;28;20206;-48
2023/05/09 10:08:36;;;;;;;31.40;19.97;;;;;;;13.73;100.00;148530.03;5110276;28;20215;-47
2023/05/09 10:11:03;;;;;;;23.37;17.63;;;;;;;13.77;100.00;148541.38;5110333;28;20209;-48
2023/05/09 10:13:30;;;;;;;26.23;19.30;;;;;;;13.70;100.00;148523.75;5107453;28;20278;-47
2023/05/09 10:15:59;;;;;;;26.77;19.20;;;;;;;13.69;100.00;148519.94;5109985;28;20197;-47
2023/05/09 10:18:29;;;;;;;25.33;18.07;;;;;;;13.81;100.00;148550.19;5109981;28;20193;-46
2023/05/09 10:21:01;;;;;;;28.07;19.67;;;;;;;13.74;100.00;148533.84;5109881;28;20221;-51
2023/05/09 10:23:30;;;;;;;27.20;18.63;;;;;;;13.85;100.00;148559.03;5108270;28;20201;-48
2023/05/09 10:26:05;;;;;;;26.07;17.13;;;;;;;13.91;100.00;148575.41;5109315;28;20194;-51
2023/05/09 10:28:35;;;;;;;22.43;15.87;;;;;;;13.94;100.00;148581.72;5109206;28;20218;-47
2023/05/09 10:31:11;;;;;;;21.13;17.07;;;;;;;13.99;100.00;148594.34;5106774;28;20253;-51
2023/05/09 10:33:46;;;;;;;25.07;16.73;;;;;;;14.08;100.00;148618.28;5106601;28;20190;-51
2023/05/09 10:36:17;;;;;;;21.90;17.07;;;;;;;14.17;100.00;148639.72;5109334;28;20200;-46
2023/05/09 10:38:44;;;;;;;22.13;15.33;;;;;;;14.04;100.00;148608.19;5107131;28;20214;-48
2023/05/09 10:41:12;;;;;;;21.50;16.33;;;;;;;13.97;100.00;148589.31;5109000;28;20198;-47
2023/05/09 10:43:39;;;;;;;20.17;15.40;;;;;;;13.95;100.00;148584.25;5106425;28;20194;-47
2023/05/09 10:46:07;;;;;;;16.87;13.83;;;;;;;13.94;100.00;148582.97;5111348;28;20190;-47
2023/05/09 10:48:34;;;;;;;24.27;16.50;;;;;;;13.91;100.00;148575.41;5113586;28;20267;-48
2023/05/09 10:51:02;;;;;;;19.17;15.50;;;;;;;13.96;100.00;148586.78;5114195;28;20285;-48
2023/05/09 10:53:43;;;;;;;18.13;14.37;;;;;;;13.82;100.00;148554.00;5114216;28;20581;-53
2023/05/09 10:56:22;;;;;;;21.57;14.07;;;;;;;13.84;100.00;148557.78;5113127;28;20194;-50
2023/05/09 10:58:49;;;;;;;17.27;15.47;;;;;;;13.82;100.00;148552.72;5112612;28;20202;-50
2023/05/09 11:01:29;;;;;;;17.73;15.73;;;;;;;13.75;100.00;148536.38;5112532;28;20197;-47
2023/05/09 11:03:58;;;;;;;17.07;13.33;;;;;;;13.84;100.00;148556.53;5110381;28;20218;-48
2023/05/09 11:06:48;;;;;;;23.80;19.23;;;;;;;13.92;100.00;148576.66;5112596;28;20748;-49